Links & Downloads

Hier präsentieren wir eine Auswahl wichtiger Downloads und interessanter Internetseiten. Wir versuchen, diese Seite immer auf aktuellem Stand zu halten.

Dokumente & Programme

  FluPP, ein kostenloses Flugbuch für Windows, mit dem man seine Flüge (Segelflug, Ultraleicht, Motorsegler, Motorflug...) verwalten kann
 
OLC - SegelflugszeneOLC - Segelflugszene

  Alle Streckenflüge des VfS |   Streckenflüge ab Krefeld |   Landesliga - Tabelle

Wetter


METAR / TAF Düsseldorf

[Quelle: ADDS]
METAR
EDDL 232020Z 29008KT 9999 -RA FEW008 BKN010 BKN060 09/08 Q1021 NOSIG =
AMD EDDL 231920Z 2319/2424 34008KT 9999 BKN013 BECMG 2319/2321 28007KT SCT015 BKN040 BECMG 2408/2411 32012KT PROB30 TEMPO 2412/2415 30015G25KT BECMG 2416/2419 30004KT
TAF
AMD EDDL 231920Z 2319/2424 34008KT 9999 BKN013 BECMG 2319/2321 28007KT SCT015 BKN040 BECMG 2408/2411 32012KT PROB30 TEMPO 2412/2415 30015G25KT BECMG 2416/2419 30004KT =
SR / SS: 05:21 / 17:28 UTC ( 2018-09-23)

Luftsportportale

Verbände

Behörden

 
Bundesamt für Naturschutz:
Gebiete mit Vogelvorkommen mit besonderer Luftfahrtrelevanz (Aircraft relevant Bird Area)
1.   Allgemein
2.   Niederrhein

Fliegerärzte

Vereinsflieger